Omskiy-107 — UBWE3 — position and weather

sailwx.info

Track history (hours):
 
Tides and Currents Weather Stations Pressure Air Temp Water Temp Dewpoint Dewpoint Depression Visibility Wind Speed Wind Dir Waves Ship Positions

Omskiy-107

Last reported at 2015-May-13 09:24 UTC. Time now 2015-May-30 18:35 UTC.
Position N 45°01' E 036°30'.
Warning: this ship's position is 17 days out of date.

Length 108 m; draft 2.8 m.

Type: Cargo ship. MMSI: 273343220.

Date/timePositionNaut miles runAvg speedWind from/ knotsBaromVisibWave heightAir tempDewpointWater temp
2015-May-13 09:24N 45°01' E 036°30'7 8.6
2015-May-13 08:33N 44°58' E 036°20'21 8.8
2015-May-13 06:08N 44°49' E 035°53'5 8.9
2015-May-13 05:32N 44°47' E 035°46'10 9.0
2015-May-13 04:23N 44°43' E 035°32'8 9.1
2015-May-13 03:34N 44°40' E 035°23'9 8.8
2015-May-13 02:33N 44°37' E 035°11'9 8.7
2015-May-13 01:32N 44°33' E 034°60'8 8.6
2015-May-13 00:33N 44°30' E 034°49'9 8.6
2015-May-12 23:33N 44°26' E 034°38'8 8.4
2015-May-12 22:34N 44°23' E 034°27'11 8.1
2015-May-12 21:13N 44°19' E 034°13'  
Track history (hours):
 
Tides and Currents Weather Stations Pressure Air Temp Water Temp Dewpoint Dewpoint Depression Visibility Wind Speed Wind Dir Waves Ship Positions

Omskiy-107

Last reported at 2015-May-13 09:24 UTC. Time now 2015-May-30 18:35 UTC.
Position N 45°01' E 036°30'.
Warning: this ship's position is 17 days out of date.

Length 108 m; draft 2.8 m.

Type: Cargo ship. MMSI: 273343220.

Date/timePositionNaut miles runAvg speedWind from/ knotsBaromVisibWave heightAir tempDewpointWater temp
2015-May-13 09:24N 45°01' E 036°30'7 8.6
2015-May-13 08:33N 44°58' E 036°20'21 8.8
2015-May-13 06:08N 44°49' E 035°53'5 8.9
2015-May-13 05:32N 44°47' E 035°46'10 9.0
2015-May-13 04:23N 44°43' E 035°32'8 9.1
2015-May-13 03:34N 44°40' E 035°23'9 8.8
2015-May-13 02:33N 44°37' E 035°11'9 8.7
2015-May-13 01:32N 44°33' E 034°60'8 8.6
2015-May-13 00:33N 44°30' E 034°49'9 8.6
2015-May-12 23:33N 44°26' E 034°38'8 8.4
2015-May-12 22:34N 44°23' E 034°27'11 8.1
2015-May-12 21:13N 44°19' E 034°13'  

Dump ship's entire track history